sensor_id;sensor_type;location;lat;lon;timestamp;temperature;humidity
12811;DHT22;6470;47.654;7.896;2022-08-19T00:01:23;15.50;99.90
12811;DHT22;6470;47.654;7.896;2022-08-19T00:03:50;19.10;99.90
12811;DHT22;6470;47.654;7.896;2022-08-19T00:06:16;19.10;99.90
12811;DHT22;6470;47.654;7.896;2022-08-19T00:08:42;18.00;99.90
12811;DHT22;6470;47.654;7.896;2022-08-19T00:11:09;18.50;99.90
12811;DHT22;6470;47.654;7.896;2022-08-19T00:13:35;18.70;99.90
12811;DHT22;6470;47.654;7.896;2022-08-19T00:16:02;18.50;99.90
12811;DHT22;6470;47.654;7.896;2022-08-19T00:18:28;18.50;99.90
12811;DHT22;6470;47.654;7.896;2022-08-19T00:20:54;18.10;99.90
12811;DHT22;6470;47.654;7.896;2022-08-19T00:23:20;18.00;99.90
12811;DHT22;6470;47.654;7.896;2022-08-19T00:25:45;17.40;99.90
12811;DHT22;6470;47.654;7.896;2022-08-19T00:28:11;17.50;99.90
12811;DHT22;6470;47.654;7.896;2022-08-19T00:30:37;15.70;99.90
12811;DHT22;6470;47.654;7.896;2022-08-19T00:33:03;18.70;99.90
12811;DHT22;6470;47.654;7.896;2022-08-19T00:35:28;18.20;99.90
12811;DHT22;6470;47.654;7.896;2022-08-19T00:37:54;17.20;99.90
12811;DHT22;6470;47.654;7.896;2022-08-19T00:40:20;17.70;99.90
12811;DHT22;6470;47.654;7.896;2022-08-19T00:42:46;17.90;99.90
12811;DHT22;6470;47.654;7.896;2022-08-19T00:45:15;18.00;99.90
12811;DHT22;6470;47.654;7.896;2022-08-19T00:47:43;18.00;99.90
12811;DHT22;6470;47.654;7.896;2022-08-19T00:50:12;18.50;99.90
12811;DHT22;6470;47.654;7.896;2022-08-19T00:52:42;17.90;99.90
12811;DHT22;6470;47.654;7.896;2022-08-19T00:55:14;18.00;99.90
12811;DHT22;6470;47.654;7.896;2022-08-19T00:57:46;17.50;99.90
12811;DHT22;6470;47.654;7.896;2022-08-19T01:00:15;18.00;99.90
12811;DHT22;6470;47.654;7.896;2022-08-19T01:02:42;17.70;99.90
12811;DHT22;6470;47.654;7.896;2022-08-19T01:05:11;18.50;99.90
12811;DHT22;6470;47.654;7.896;2022-08-19T01:07:39;18.70;99.90
12811;DHT22;6470;47.654;7.896;2022-08-19T01:10:10;15.10;99.90
12811;DHT22;6470;47.654;7.896;2022-08-19T01:12:37;15.40;99.90
12811;DHT22;6470;47.654;7.896;2022-08-19T01:15:05;18.50;99.90
12811;DHT22;6470;47.654;7.896;2022-08-19T01:17:31;18.80;99.90
12811;DHT22;6470;47.654;7.896;2022-08-19T01:19:57;17.70;99.90
12811;DHT22;6470;47.654;7.896;2022-08-19T01:24:49;17.90;99.90
12811;DHT22;6470;47.654;7.896;2022-08-19T01:29:42;17.40;99.90
12811;DHT22;6470;47.654;7.896;2022-08-19T01:32:14;17.30;99.90
12811;DHT22;6470;47.654;7.896;2022-08-19T01:34:40;17.90;99.90
12811;DHT22;6470;47.654;7.896;2022-08-19T01:37:11;17.30;99.90
12811;DHT22;6470;47.654;7.896;2022-08-19T01:39:38;17.70;99.90
12811;DHT22;6470;47.654;7.896;2022-08-19T01:42:05;17.90;99.90
12811;DHT22;6470;47.654;7.896;2022-08-19T01:44:33;17.80;99.90
12811;DHT22;6470;47.654;7.896;2022-08-19T01:46:58;17.30;99.90
12811;DHT22;6470;47.654;7.896;2022-08-19T01:49:25;17.60;99.90
12811;DHT22;6470;47.654;7.896;2022-08-19T01:51:52;17.30;99.90
12811;DHT22;6470;47.654;7.896;2022-08-19T01:54:20;17.50;99.90
12811;DHT22;6470;47.654;7.896;2022-08-19T01:59:17;17.50;99.90
12811;DHT22;6470;47.654;7.896;2022-08-19T02:01:44;17.30;99.90
12811;DHT22;6470;47.654;7.896;2022-08-19T02:04:10;17.20;99.90
12811;DHT22;6470;47.654;7.896;2022-08-19T02:06:36;18.00;99.90
12811;DHT22;6470;47.654;7.896;2022-08-19T02:09:05;17.80;99.90
12811;DHT22;6470;47.654;7.896;2022-08-19T02:11:33;17.60;99.90
12811;DHT22;6470;47.654;7.896;2022-08-19T02:14:01;18.10;99.90
12811;DHT22;6470;47.654;7.896;2022-08-19T02:16:29;17.50;99.90
12811;DHT22;6470;47.654;7.896;2022-08-19T02:18:56;17.00;99.90
12811;DHT22;6470;47.654;7.896;2022-08-19T02:21:23;17.40;99.90
12811;DHT22;6470;47.654;7.896;2022-08-19T02:23:50;17.70;99.90
12811;DHT22;6470;47.654;7.896;2022-08-19T02:26:16;17.30;99.90
12811;DHT22;6470;47.654;7.896;2022-08-19T02:28:42;17.40;99.90
12811;DHT22;6470;47.654;7.896;2022-08-19T02:31:16;18.10;99.90
12811;DHT22;6470;47.654;7.896;2022-08-19T02:33:43;18.00;99.90
12811;DHT22;6470;47.654;7.896;2022-08-19T02:36:10;17.60;99.90
12811;DHT22;6470;47.654;7.896;2022-08-19T02:41:05;17.90;99.90
12811;DHT22;6470;47.654;7.896;2022-08-19T02:43:33;14.80;99.90
12811;DHT22;6470;47.654;7.896;2022-08-19T02:48:43;18.20;99.90
12811;DHT22;6470;47.654;7.896;2022-08-19T02:51:16;17.60;99.90
12811;DHT22;6470;47.654;7.896;2022-08-19T02:56:08;17.80;99.90
12811;DHT22;6470;47.654;7.896;2022-08-19T02:58:34;17.60;99.90
12811;DHT22;6470;47.654;7.896;2022-08-19T03:01:00;17.50;99.90
12811;DHT22;6470;47.654;7.896;2022-08-19T03:03:26;17.30;99.90
12811;DHT22;6470;47.654;7.896;2022-08-19T03:06:03;17.90;99.90
12811;DHT22;6470;47.654;7.896;2022-08-19T03:08:29;17.40;99.90
12811;DHT22;6470;47.654;7.896;2022-08-19T03:10:55;18.30;99.90
12811;DHT22;6470;47.654;7.896;2022-08-19T03:13:21;18.00;99.90
12811;DHT22;6470;47.654;7.896;2022-08-19T03:15:48;18.20;99.90
12811;DHT22;6470;47.654;7.896;2022-08-19T03:18:15;17.50;99.90
12811;DHT22;6470;47.654;7.896;2022-08-19T03:20:44;17.30;99.90
12811;DHT22;6470;47.654;7.896;2022-08-19T03:23:10;17.20;99.90
12811;DHT22;6470;47.654;7.896;2022-08-19T03:25:43;14.50;99.90
12811;DHT22;6470;47.654;7.896;2022-08-19T03:28:11;17.00;99.90
12811;DHT22;6470;47.654;7.896;2022-08-19T03:30:38;17.20;99.90
12811;DHT22;6470;47.654;7.896;2022-08-19T03:33:06;17.60;99.90
12811;DHT22;6470;47.654;7.896;2022-08-19T03:35:32;17.70;99.90
12811;DHT22;6470;47.654;7.896;2022-08-19T03:37:59;18.30;99.90
12811;DHT22;6470;47.654;7.896;2022-08-19T03:40:25;17.80;99.90
12811;DHT22;6470;47.654;7.896;2022-08-19T03:42:51;17.60;99.90
12811;DHT22;6470;47.654;7.896;2022-08-19T03:45:17;17.90;99.90
12811;DHT22;6470;47.654;7.896;2022-08-19T03:47:43;17.70;99.90
12811;DHT22;6470;47.654;7.896;2022-08-19T03:50:09;17.80;99.90
12811;DHT22;6470;47.654;7.896;2022-08-19T03:52:35;17.60;99.90
12811;DHT22;6470;47.654;7.896;2022-08-19T03:55:02;17.40;99.90
12811;DHT22;6470;47.654;7.896;2022-08-19T03:57:28;17.40;99.90
12811;DHT22;6470;47.654;7.896;2022-08-19T03:59:53;16.60;99.90
12811;DHT22;6470;47.654;7.896;2022-08-19T04:02:19;16.70;99.90
12811;DHT22;6470;47.654;7.896;2022-08-19T04:04:45;17.10;99.90
12811;DHT22;6470;47.654;7.896;2022-08-19T04:07:13;16.90;99.90
12811;DHT22;6470;47.654;7.896;2022-08-19T04:09:41;18.00;99.90
12811;DHT22;6470;47.654;7.896;2022-08-19T04:12:07;17.30;99.90
12811;DHT22;6470;47.654;7.896;2022-08-19T04:14:34;17.80;99.90
12811;DHT22;6470;47.654;7.896;2022-08-19T04:17:00;17.50;99.90
12811;DHT22;6470;47.654;7.896;2022-08-19T04:19:28;17.60;99.90
12811;DHT22;6470;47.654;7.896;2022-08-19T04:21:54;17.30;99.90
12811;DHT22;6470;47.654;7.896;2022-08-19T04:24:21;17.40;99.90
12811;DHT22;6470;47.654;7.896;2022-08-19T04:26:47;17.90;99.90
12811;DHT22;6470;47.654;7.896;2022-08-19T04:29:17;16.90;99.90
12811;DHT22;6470;47.654;7.896;2022-08-19T04:31:44;17.60;99.90
12811;DHT22;6470;47.654;7.896;2022-08-19T04:34:13;17.00;99.90
12811;DHT22;6470;47.654;7.896;2022-08-19T04:36:40;17.90;99.90
12811;DHT22;6470;47.654;7.896;2022-08-19T04:39:10;17.50;99.90
12811;DHT22;6470;47.654;7.896;2022-08-19T04:41:37;17.90;99.90
12811;DHT22;6470;47.654;7.896;2022-08-19T04:44:21;17.80;99.90
12811;DHT22;6470;47.654;7.896;2022-08-19T04:46:49;17.50;99.90
12811;DHT22;6470;47.654;7.896;2022-08-19T04:49:16;17.60;99.90
12811;DHT22;6470;47.654;7.896;2022-08-19T04:51:44;18.00;99.90
12811;DHT22;6470;47.654;7.896;2022-08-19T04:54:11;17.50;99.90
12811;DHT22;6470;47.654;7.896;2022-08-19T04:56:39;17.60;99.90
12811;DHT22;6470;47.654;7.896;2022-08-19T04:59:05;17.60;99.90
12811;DHT22;6470;47.654;7.896;2022-08-19T05:01:33;17.60;99.90
12811;DHT22;6470;47.654;7.896;2022-08-19T05:04:03;18.20;99.90
12811;DHT22;6470;47.654;7.896;2022-08-19T05:06:31;17.60;99.90
12811;DHT22;6470;47.654;7.896;2022-08-19T05:09:08;17.60;99.90
12811;DHT22;6470;47.654;7.896;2022-08-19T05:11:37;17.90;99.90
12811;DHT22;6470;47.654;7.896;2022-08-19T05:16:30;17.70;99.90
12811;DHT22;6470;47.654;7.896;2022-08-19T05:18:56;17.70;99.90
12811;DHT22;6470;47.654;7.896;2022-08-19T05:21:42;17.70;99.90
12811;DHT22;6470;47.654;7.896;2022-08-19T05:24:27;17.70;99.90
12811;DHT22;6470;47.654;7.896;2022-08-19T05:26:53;17.70;99.90
12811;DHT22;6470;47.654;7.896;2022-08-19T05:29:25;17.90;99.90
12811;DHT22;6470;47.654;7.896;2022-08-19T05:31:53;17.90;99.90
12811;DHT22;6470;47.654;7.896;2022-08-19T05:34:20;18.00;99.90
12811;DHT22;6470;47.654;7.896;2022-08-19T05:36:48;17.80;99.90
12811;DHT22;6470;47.654;7.896;2022-08-19T05:39:17;17.80;99.90
12811;DHT22;6470;47.654;7.896;2022-08-19T05:41:46;17.90;99.90
12811;DHT22;6470;47.654;7.896;2022-08-19T05:44:12;17.70;99.90
12811;DHT22;6470;47.654;7.896;2022-08-19T05:46:39;17.60;99.90
12811;DHT22;6470;47.654;7.896;2022-08-19T05:49:06;17.60;99.90
12811;DHT22;6470;47.654;7.896;2022-08-19T05:51:34;17.70;99.90
12811;DHT22;6470;47.654;7.896;2022-08-19T05:54:05;15.00;99.90
12811;DHT22;6470;47.654;7.896;2022-08-19T05:56:31;17.40;99.90
12811;DHT22;6470;47.654;7.896;2022-08-19T06:01:24;17.70;99.90
12811;DHT22;6470;47.654;7.896;2022-08-19T06:03:50;17.00;99.90
12811;DHT22;6470;47.654;7.896;2022-08-19T06:06:17;18.30;99.90
12811;DHT22;6470;47.654;7.896;2022-08-19T06:08:43;18.20;99.90
12811;DHT22;6470;47.654;7.896;2022-08-19T06:14:07;17.90;99.90
12811;DHT22;6470;47.654;7.896;2022-08-19T06:16:38;18.30;99.90
12811;DHT22;6470;47.654;7.896;2022-08-19T06:19:10;18.10;99.90
12811;DHT22;6470;47.654;7.896;2022-08-19T06:21:38;18.40;99.90
12811;DHT22;6470;47.654;7.896;2022-08-19T06:24:07;18.70;99.90
12811;DHT22;6470;47.654;7.896;2022-08-19T06:26:37;18.10;99.90
12811;DHT22;6470;47.654;7.896;2022-08-19T06:29:05;18.00;99.90
12811;DHT22;6470;47.654;7.896;2022-08-19T06:31:32;18.50;99.90
12811;DHT22;6470;47.654;7.896;2022-08-19T06:34:00;15.20;99.90
12811;DHT22;6470;47.654;7.896;2022-08-19T06:36:30;18.30;99.90
12811;DHT22;6470;47.654;7.896;2022-08-19T06:39:01;18.10;99.90
12811;DHT22;6470;47.654;7.896;2022-08-19T06:41:28;17.70;99.90
12811;DHT22;6470;47.654;7.896;2022-08-19T06:43:55;18.30;99.90
12811;DHT22;6470;47.654;7.896;2022-08-19T06:46:21;18.40;99.90
12811;DHT22;6470;47.654;7.896;2022-08-19T06:48:47;18.10;99.90
12811;DHT22;6470;47.654;7.896;2022-08-19T06:51:17;18.80;99.90
12811;DHT22;6470;47.654;7.896;2022-08-19T06:53:50;17.90;99.90
12811;DHT22;6470;47.654;7.896;2022-08-19T06:56:18;18.10;99.90
12811;DHT22;6470;47.654;7.896;2022-08-19T06:58:44;18.10;99.90
12811;DHT22;6470;47.654;7.896;2022-08-19T07:01:10;18.70;99.90
12811;DHT22;6470;47.654;7.896;2022-08-19T07:03:36;18.40;99.90
12811;DHT22;6470;47.654;7.896;2022-08-19T07:06:15;18.40;99.90
12811;DHT22;6470;47.654;7.896;2022-08-19T07:08:44;19.20;99.90
12811;DHT22;6470;47.654;7.896;2022-08-19T07:11:11;18.50;99.90
12811;DHT22;6470;47.654;7.896;2022-08-19T07:13:39;18.40;99.90
12811;DHT22;6470;47.654;7.896;2022-08-19T07:16:10;18.20;99.90
12811;DHT22;6470;47.654;7.896;2022-08-19T07:18:37;17.90;99.90
12811;DHT22;6470;47.654;7.896;2022-08-19T07:21:24;18.10;99.90
12811;DHT22;6470;47.654;7.896;2022-08-19T07:23:53;18.30;99.90
12811;DHT22;6470;47.654;7.896;2022-08-19T07:26:25;18.20;99.90
12811;DHT22;6470;47.654;7.896;2022-08-19T07:28:52;18.20;99.90
12811;DHT22;6470;47.654;7.896;2022-08-19T07:31:20;17.80;99.90
12811;DHT22;6470;47.654;7.896;2022-08-19T07:33:48;18.40;99.90
12811;DHT22;6470;47.654;7.896;2022-08-19T07:36:18;18.30;99.90
12811;DHT22;6470;47.654;7.896;2022-08-19T07:38:46;18.30;99.90
12811;DHT22;6470;47.654;7.896;2022-08-19T07:41:19;18.40;99.90
12811;DHT22;6470;47.654;7.896;2022-08-19T07:43:45;19.00;99.90
12811;DHT22;6470;47.654;7.896;2022-08-19T07:46:11;18.70;99.90
12811;DHT22;6470;47.654;7.896;2022-08-19T07:48:40;18.40;99.90
12811;DHT22;6470;47.654;7.896;2022-08-19T07:51:08;18.50;99.90
12811;DHT22;6470;47.654;7.896;2022-08-19T07:53:35;18.50;99.90
12811;DHT22;6470;47.654;7.896;2022-08-19T07:56:02;18.20;99.90
12811;DHT22;6470;47.654;7.896;2022-08-19T07:58:32;18.60;99.90
12811;DHT22;6470;47.654;7.896;2022-08-19T08:00:59;18.60;99.90
12811;DHT22;6470;47.654;7.896;2022-08-19T08:03:26;15.70;99.90
12811;DHT22;6470;47.654;7.896;2022-08-19T08:06:12;18.80;99.90
12811;DHT22;6470;47.654;7.896;2022-08-19T08:08:57;19.50;99.90
12811;DHT22;6470;47.654;7.896;2022-08-19T08:11:51;18.70;99.90
12811;DHT22;6470;47.654;7.896;2022-08-19T08:14:24;18.70;99.90
12811;DHT22;6470;47.654;7.896;2022-08-19T08:16:50;19.10;99.90
12811;DHT22;6470;47.654;7.896;2022-08-19T08:19:19;19.00;99.90
12811;DHT22;6470;47.654;7.896;2022-08-19T08:21:45;19.00;99.90
12811;DHT22;6470;47.654;7.896;2022-08-19T08:24:11;18.40;99.90
12811;DHT22;6470;47.654;7.896;2022-08-19T08:26:37;19.10;99.90
12811;DHT22;6470;47.654;7.896;2022-08-19T08:29:03;18.90;99.90
12811;DHT22;6470;47.654;7.896;2022-08-19T08:31:29;18.60;99.90
12811;DHT22;6470;47.654;7.896;2022-08-19T08:33:55;19.20;99.90
12811;DHT22;6470;47.654;7.896;2022-08-19T08:36:21;15.90;99.90
12811;DHT22;6470;47.654;7.896;2022-08-19T08:38:47;19.20;99.90
12811;DHT22;6470;47.654;7.896;2022-08-19T08:41:26;18.80;99.90
12811;DHT22;6470;47.654;7.896;2022-08-19T08:43:54;18.90;99.90
12811;DHT22;6470;47.654;7.896;2022-08-19T08:46:37;19.10;99.90
12811;DHT22;6470;47.654;7.896;2022-08-19T08:49:26;18.90;99.90
12811;DHT22;6470;47.654;7.896;2022-08-19T08:52:15;19.20;99.90
12811;DHT22;6470;47.654;7.896;2022-08-19T08:54:45;19.10;99.90
12811;DHT22;6470;47.654;7.896;2022-08-19T08:57:32;18.80;99.90
12811;DHT22;6470;47.654;7.896;2022-08-19T09:00:03;18.80;99.90
12811;DHT22;6470;47.654;7.896;2022-08-19T09:02:31;19.10;99.90
12811;DHT22;6470;47.654;7.896;2022-08-19T09:04:56;19.70;99.90
12811;DHT22;6470;47.654;7.896;2022-08-19T09:07:58;16.40;99.90
12811;DHT22;6470;47.654;7.896;2022-08-19T09:10:36;19.20;99.90
12811;DHT22;6470;47.654;7.896;2022-08-19T09:16:10;19.00;99.90
12811;DHT22;6470;47.654;7.896;2022-08-19T09:18:47;19.40;99.90
12811;DHT22;6470;47.654;7.896;2022-08-19T09:21:15;19.40;99.90
12811;DHT22;6470;47.654;7.896;2022-08-19T09:23:41;16.20;99.90
12811;DHT22;6470;47.654;7.896;2022-08-19T09:26:13;20.00;99.90
12811;DHT22;6470;47.654;7.896;2022-08-19T09:28:43;19.00;99.90
12811;DHT22;6470;47.654;7.896;2022-08-19T09:31:16;19.60;99.90
12811;DHT22;6470;47.654;7.896;2022-08-19T09:33:42;19.10;99.90
12811;DHT22;6470;47.654;7.896;2022-08-19T09:36:13;19.30;99.90
12811;DHT22;6470;47.654;7.896;2022-08-19T09:38:39;18.90;99.90
12811;DHT22;6470;47.654;7.896;2022-08-19T09:41:12;19.50;99.90
12811;DHT22;6470;47.654;7.896;2022-08-19T09:43:39;19.20;99.90
12811;DHT22;6470;47.654;7.896;2022-08-19T09:46:06;18.60;99.90
12811;DHT22;6470;47.654;7.896;2022-08-19T09:48:35;19.00;99.90
12811;DHT22;6470;47.654;7.896;2022-08-19T09:51:12;19.00;99.90
12811;DHT22;6470;47.654;7.896;2022-08-19T09:53:41;18.90;99.90
12811;DHT22;6470;47.654;7.896;2022-08-19T09:56:08;19.70;99.90
12811;DHT22;6470;47.654;7.896;2022-08-19T09:58:35;19.50;99.90
12811;DHT22;6470;47.654;7.896;2022-08-19T10:01:02;19.50;99.90
12811;DHT22;6470;47.654;7.896;2022-08-19T10:03:30;19.70;99.90
12811;DHT22;6470;47.654;7.896;2022-08-19T10:05:57;19.60;99.90
12811;DHT22;6470;47.654;7.896;2022-08-19T10:08:26;19.70;99.90
12811;DHT22;6470;47.654;7.896;2022-08-19T10:10:53;18.80;99.90
12811;DHT22;6470;47.654;7.896;2022-08-19T10:13:22;19.40;99.90
12811;DHT22;6470;47.654;7.896;2022-08-19T10:15:49;19.40;99.90
12811;DHT22;6470;47.654;7.896;2022-08-19T10:18:20;19.80;99.90
12811;DHT22;6470;47.654;7.896;2022-08-19T10:20:47;19.90;99.90
12811;DHT22;6470;47.654;7.896;2022-08-19T10:23:15;19.80;99.90
12811;DHT22;6470;47.654;7.896;2022-08-19T10:25:42;19.80;99.90
12811;DHT22;6470;47.654;7.896;2022-08-19T10:28:08;19.90;99.90
12811;DHT22;6470;47.654;7.896;2022-08-19T10:30:37;19.70;99.90
12811;DHT22;6470;47.654;7.896;2022-08-19T10:33:03;20.00;99.90
12811;DHT22;6470;47.654;7.896;2022-08-19T10:35:29;20.40;99.90
12811;DHT22;6470;47.654;7.896;2022-08-19T10:37:55;19.60;99.90
12811;DHT22;6470;47.654;7.896;2022-08-19T10:40:26;19.70;99.90
12811;DHT22;6470;47.654;7.896;2022-08-19T10:42:53;20.10;99.90
12811;DHT22;6470;47.654;7.896;2022-08-19T10:45:21;20.10;99.90
12811;DHT22;6470;47.654;7.896;2022-08-19T10:47:50;20.20;99.90
12811;DHT22;6470;47.654;7.896;2022-08-19T10:50:16;19.50;99.90
12811;DHT22;6470;47.654;7.896;2022-08-19T10:53:07;20.20;99.90
12811;DHT22;6470;47.654;7.896;2022-08-19T10:55:36;20.40;99.90
12811;DHT22;6470;47.654;7.896;2022-08-19T10:58:21;20.50;99.90
12811;DHT22;6470;47.654;7.896;2022-08-19T11:00:54;20.20;99.90
12811;DHT22;6470;47.654;7.896;2022-08-19T11:03:21;20.20;99.90
12811;DHT22;6470;47.654;7.896;2022-08-19T11:05:47;21.40;99.90
12811;DHT22;6470;47.654;7.896;2022-08-19T11:08:14;20.40;99.90
12811;DHT22;6470;47.654;7.896;2022-08-19T11:10:42;20.70;99.90
12811;DHT22;6470;47.654;7.896;2022-08-19T11:13:09;20.40;99.90
12811;DHT22;6470;47.654;7.896;2022-08-19T11:15:35;20.60;99.90
12811;DHT22;6470;47.654;7.896;2022-08-19T11:18:00;20.30;99.90
12811;DHT22;6470;47.654;7.896;2022-08-19T11:20:26;20.00;99.90
12811;DHT22;6470;47.654;7.896;2022-08-19T11:22:52;20.40;99.90
12811;DHT22;6470;47.654;7.896;2022-08-19T11:25:19;21.20;99.90
12811;DHT22;6470;47.654;7.896;2022-08-19T11:27:44;21.40;99.90
12811;DHT22;6470;47.654;7.896;2022-08-19T11:30:13;20.70;99.90
12811;DHT22;6470;47.654;7.896;2022-08-19T11:32:40;20.60;99.90
12811;DHT22;6470;47.654;7.896;2022-08-19T11:35:07;21.60;99.90
12811;DHT22;6470;47.654;7.896;2022-08-19T11:37:33;21.10;99.90
12811;DHT22;6470;47.654;7.896;2022-08-19T11:40:03;21.00;99.90
12811;DHT22;6470;47.654;7.896;2022-08-19T11:42:29;20.90;99.90
12811;DHT22;6470;47.654;7.896;2022-08-19T11:45:13;21.00;99.90
12811;DHT22;6470;47.654;7.896;2022-08-19T11:52:31;22.10;99.90
12811;DHT22;6470;47.654;7.896;2022-08-19T11:54:57;20.40;99.90
12811;DHT22;6470;47.654;7.896;2022-08-19T11:57:23;21.10;99.90
12811;DHT22;6470;47.654;7.896;2022-08-19T11:59:50;21.10;99.90
12811;DHT22;6470;47.654;7.896;2022-08-19T12:02:16;21.50;99.90
12811;DHT22;6470;47.654;7.896;2022-08-19T12:04:42;21.10;99.90
12811;DHT22;6470;47.654;7.896;2022-08-19T12:07:08;21.20;99.90
12811;DHT22;6470;47.654;7.896;2022-08-19T12:09:33;21.20;99.90
12811;DHT22;6470;47.654;7.896;2022-08-19T12:12:00;21.20;99.90
12811;DHT22;6470;47.654;7.896;2022-08-19T12:14:27;21.30;99.90
12811;DHT22;6470;47.654;7.896;2022-08-19T12:16:55;22.60;99.90
12811;DHT22;6470;47.654;7.896;2022-08-19T12:19:21;21.60;99.90
12811;DHT22;6470;47.654;7.896;2022-08-19T12:21:47;21.70;99.90
12811;DHT22;6470;47.654;7.896;2022-08-19T12:24:13;21.80;99.90
12811;DHT22;6470;47.654;7.896;2022-08-19T12:26:39;21.80;99.90
12811;DHT22;6470;47.654;7.896;2022-08-19T12:29:05;22.00;99.90
12811;DHT22;6470;47.654;7.896;2022-08-19T12:31:31;21.80;99.90
12811;DHT22;6470;47.654;7.896;2022-08-19T12:33:57;21.90;99.90
12811;DHT22;6470;47.654;7.896;2022-08-19T12:36:24;22.60;99.90
12811;DHT22;6470;47.654;7.896;2022-08-19T12:38:51;19.10;99.90
12811;DHT22;6470;47.654;7.896;2022-08-19T12:41:17;21.80;99.90
12811;DHT22;6470;47.654;7.896;2022-08-19T12:43:44;21.30;99.90
12811;DHT22;6470;47.654;7.896;2022-08-19T12:46:10;21.30;99.90
12811;DHT22;6470;47.654;7.896;2022-08-19T12:48:37;21.50;99.90
12811;DHT22;6470;47.654;7.896;2022-08-19T12:51:10;21.60;99.90
12811;DHT22;6470;47.654;7.896;2022-08-19T12:53:36;22.30;99.90
12811;DHT22;6470;47.654;7.896;2022-08-19T12:56:03;22.70;99.90
12811;DHT22;6470;47.654;7.896;2022-08-19T12:58:30;21.60;99.90
12811;DHT22;6470;47.654;7.896;2022-08-19T13:00:57;21.30;99.90
12811;DHT22;6470;47.654;7.896;2022-08-19T13:03:22;21.60;99.90
12811;DHT22;6470;47.654;7.896;2022-08-19T13:05:54;21.50;99.90
12811;DHT22;6470;47.654;7.896;2022-08-19T13:08:20;21.20;99.90
12811;DHT22;6470;47.654;7.896;2022-08-19T13:10:45;21.30;99.90
12811;DHT22;6470;47.654;7.896;2022-08-19T13:13:12;21.30;99.90
12811;DHT22;6470;47.654;7.896;2022-08-19T13:15:41;20.30;99.90
12811;DHT22;6470;47.654;7.896;2022-08-19T13:18:09;17.80;99.90
12811;DHT22;6470;47.654;7.896;2022-08-19T13:20:37;21.00;99.90
12811;DHT22;6470;47.654;7.896;2022-08-19T13:23:03;21.40;99.90
12811;DHT22;6470;47.654;7.896;2022-08-19T13:25:30;20.70;99.90
12811;DHT22;6470;47.654;7.896;2022-08-19T13:27:55;20.30;99.90
12811;DHT22;6470;47.654;7.896;2022-08-19T13:30:22;17.70;99.90
12811;DHT22;6470;47.654;7.896;2022-08-19T13:33:07;20.30;99.90
12811;DHT22;6470;47.654;7.896;2022-08-19T13:35:48;19.80;99.90
12811;DHT22;6470;47.654;7.896;2022-08-19T13:38:17;20.30;99.90
12811;DHT22;6470;47.654;7.896;2022-08-19T13:40:44;20.30;99.90
12811;DHT22;6470;47.654;7.896;2022-08-19T13:43:13;20.80;99.90
12811;DHT22;6470;47.654;7.896;2022-08-19T13:45:41;19.90;99.90
12811;DHT22;6470;47.654;7.896;2022-08-19T13:48:10;20.30;99.90
12811;DHT22;6470;47.654;7.896;2022-08-19T13:50:41;20.80;99.90
12811;DHT22;6470;47.654;7.896;2022-08-19T13:53:09;20.90;99.90
12811;DHT22;6470;47.654;7.896;2022-08-19T13:55:41;20.10;99.90
12811;DHT22;6470;47.654;7.896;2022-08-19T13:58:09;20.40;99.90
12811;DHT22;6470;47.654;7.896;2022-08-19T14:00:39;19.80;99.90
12811;DHT22;6470;47.654;7.896;2022-08-19T14:03:06;19.70;99.90
12811;DHT22;6470;47.654;7.896;2022-08-19T14:05:32;19.40;99.90
12811;DHT22;6470;47.654;7.896;2022-08-19T14:07:59;19.90;99.90
12811;DHT22;6470;47.654;7.896;2022-08-19T14:10:28;19.50;99.90
12811;DHT22;6470;47.654;7.896;2022-08-19T14:13:00;19.80;99.90
12811;DHT22;6470;47.654;7.896;2022-08-19T14:15:27;20.20;99.90
12811;DHT22;6470;47.654;7.896;2022-08-19T14:17:53;19.80;99.90
12811;DHT22;6470;47.654;7.896;2022-08-19T14:20:20;19.80;99.90
12811;DHT22;6470;47.654;7.896;2022-08-19T14:22:46;20.70;99.90
12811;DHT22;6470;47.654;7.896;2022-08-19T14:25:16;20.40;99.90
12811;DHT22;6470;47.654;7.896;2022-08-19T14:27:42;17.40;99.90
12811;DHT22;6470;47.654;7.896;2022-08-19T14:30:14;20.70;99.90
12811;DHT22;6470;47.654;7.896;2022-08-19T14:32:40;17.40;99.90
12811;DHT22;6470;47.654;7.896;2022-08-19T14:35:10;20.00;99.90
12811;DHT22;6470;47.654;7.896;2022-08-19T14:37:38;20.80;99.90
12811;DHT22;6470;47.654;7.896;2022-08-19T14:40:05;16.70;99.90
12811;DHT22;6470;47.654;7.896;2022-08-19T14:42:30;21.10;99.90
12811;DHT22;6470;47.654;7.896;2022-08-19T14:44:59;20.40;99.90
12811;DHT22;6470;47.654;7.896;2022-08-19T14:52:17;17.60;99.90
12811;DHT22;6470;47.654;7.896;2022-08-19T14:54:43;20.60;99.90
12811;DHT22;6470;47.654;7.896;2022-08-19T14:57:12;20.10;99.90
12811;DHT22;6470;47.654;7.896;2022-08-19T14:59:40;20.50;99.90
12811;DHT22;6470;47.654;7.896;2022-08-19T15:02:06;20.70;99.90
12811;DHT22;6470;47.654;7.896;2022-08-19T15:04:31;21.10;99.90
12811;DHT22;6470;47.654;7.896;2022-08-19T15:06:57;21.40;99.90
12811;DHT22;6470;47.654;7.896;2022-08-19T15:09:23;21.80;99.90
12811;DHT22;6470;47.654;7.896;2022-08-19T15:11:49;22.30;99.90
12811;DHT22;6470;47.654;7.896;2022-08-19T15:14:15;22.10;99.90
12811;DHT22;6470;47.654;7.896;2022-08-19T15:16:42;21.60;99.90
12811;DHT22;6470;47.654;7.896;2022-08-19T15:19:08;22.20;99.90
12811;DHT22;6470;47.654;7.896;2022-08-19T15:21:34;21.80;99.90
12811;DHT22;6470;47.654;7.896;2022-08-19T15:24:02;21.60;99.90
12811;DHT22;6470;47.654;7.896;2022-08-19T15:26:28;21.90;99.90
12811;DHT22;6470;47.654;7.896;2022-08-19T15:28:57;21.60;99.90
12811;DHT22;6470;47.654;7.896;2022-08-19T15:31:25;21.50;99.90
12811;DHT22;6470;47.654;7.896;2022-08-19T15:33:53;21.80;99.90
12811;DHT22;6470;47.654;7.896;2022-08-19T15:36:21;21.50;99.90
12811;DHT22;6470;47.654;7.896;2022-08-19T15:38:48;22.10;99.90
12811;DHT22;6470;47.654;7.896;2022-08-19T15:41:21;21.90;99.90
12811;DHT22;6470;47.654;7.896;2022-08-19T15:43:54;21.90;99.90
12811;DHT22;6470;47.654;7.896;2022-08-19T15:46:23;21.60;99.90
12811;DHT22;6470;47.654;7.896;2022-08-19T15:48:51;18.60;99.90
12811;DHT22;6470;47.654;7.896;2022-08-19T15:51:18;18.30;99.90
12811;DHT22;6470;47.654;7.896;2022-08-19T15:53:44;21.50;99.90
12811;DHT22;6470;47.654;7.896;2022-08-19T15:56:11;21.80;99.90
12811;DHT22;6470;47.654;7.896;2022-08-19T15:58:37;18.40;99.90
12811;DHT22;6470;47.654;7.896;2022-08-19T16:01:22;21.20;99.90
12811;DHT22;6470;47.654;7.896;2022-08-19T16:03:55;21.10;99.90
12811;DHT22;6470;47.654;7.896;2022-08-19T16:06:49;21.00;99.90
12811;DHT22;6470;47.654;7.896;2022-08-19T16:09:16;20.90;99.90
12811;DHT22;6470;47.654;7.896;2022-08-19T16:11:44;20.80;99.90
12811;DHT22;6470;47.654;7.896;2022-08-19T16:14:10;21.10;99.90
12811;DHT22;6470;47.654;7.896;2022-08-19T16:16:36;21.00;99.90
12811;DHT22;6470;47.654;7.896;2022-08-19T16:19:06;20.80;99.90
12811;DHT22;6470;47.654;7.896;2022-08-19T16:21:33;20.90;99.90
12811;DHT22;6470;47.654;7.896;2022-08-19T16:24:02;17.80;99.90
12811;DHT22;6470;47.654;7.896;2022-08-19T16:26:29;21.00;99.90
12811;DHT22;6470;47.654;7.896;2022-08-19T16:28:59;20.60;99.90